Time;durP1;ratioP1;P1;durP2;ratioP2;P2;SDS_P1;SDS_P2;PMS_P1;PMS_P2;Temp;Humidity;BMP_temperature;BMP_pressure;BME280_temperature;BME280_humidity;BME280_pressure;Samples;Min_cycle;Max_cycle;Signal;HPM_P1;HPM_P2
2023/11/19 00:01:31;;;;;;;;;;;;;;;27.79;56.72;101228.13;5102578;27;66100;-34
2023/11/19 00:04:00;;;;;;;;;;;;;;;27.81;57.07;101226.09;5102300;27;70628;-33
2023/11/19 00:06:30;;;;;;;;;;;;;;;27.85;57.58;101230.06;5088462;27;66844;-32
2023/11/19 00:09:00;;;;;;;;;;;;;;;27.89;57.87;101238.59;5101688;27;70409;-34
2023/11/19 00:11:29;;;;;;;;;;;;;;;27.92;58.39;101228.28;5102474;27;66435;-34
2023/11/19 00:13:59;;;;;;;;;;;;;;;27.96;58.68;101224.16;5100680;27;70492;-33
2023/11/19 00:16:28;;;;;;;;;;;;;;;27.99;58.34;101239.97;5102198;27;65413;-32
2023/11/19 00:18:59;;;;;;;;;;;;;;;27.99;58.55;101239.97;5102012;27;70168;-34
2023/11/19 00:21:29;;;;;;;;;;;;;;;28.02;58.53;101236.88;5100620;27;66070;-34
2023/11/19 00:23:59;;;;;;;;;;;;;;;28.08;58.97;101246.06;5102358;27;69788;-35
2023/11/19 00:26:29;;;;;;;;;;;;;;;28.11;59.57;101239.44;5102269;27;67369;-34
2023/11/19 00:28:58;;;;;;;;;;;;;;;28.11;59.52;101242.13;5101010;27;69949;-34
2023/11/19 00:31:28;;;;;;;;;;;;;;;28.13;59.73;101243.63;5102335;27;66586;-35
2023/11/19 00:33:58;;;;;;;;;;;;;;;28.17;59.52;101246.78;5101375;27;69621;-36
2023/11/19 00:36:28;;;;;;;;;;;;;;;28.17;59.71;101236.81;5080934;27;67144;-33
2023/11/19 00:38:58;;;;;;;;;;;;;;;28.21;60.03;101242.66;5104790;27;69861;-36
2023/11/19 00:41:27;;;;;;;;;;;;;;;28.24;60.04;101242.28;5101322;27;66035;-35
2023/11/19 00:43:57;;;;;;;;;;;;;;;28.27;60.18;101247.28;5082352;27;69938;-33
2023/11/19 00:46:27;;;;;;;;;;;;;;;28.27;60.05;101248.09;5101858;27;66727;-34
2023/11/19 00:48:59;;;;;;;;;;;;;;;28.31;59.58;101248.56;5093021;27;70553;-34
2023/11/19 00:51:31;;;;;;;;;;;;;;;28.32;60.16;101252.94;5098544;27;67560;-33
2023/11/19 00:54:00;;;;;;;;;;;;;;;28.35;60.15;101249.00;5102876;27;69530;-35
2023/11/19 00:56:30;;;;;;;;;;;;;;;28.39;60.08;101244.88;5102314;27;66506;-35
2023/11/19 00:59:00;;;;;;;;;;;;;;;28.40;60.24;101250.09;5100533;27;70211;-34
2023/11/19 01:01:29;;;;;;;;;;;;;;;28.42;59.93;101253.47;5101926;27;66918;-34
2023/11/19 01:03:59;;;;;;;;;;;;;;;28.45;60.54;101261.19;5101081;27;70703;-34
2023/11/19 01:06:30;;;;;;;;;;;;;;;28.48;61.20;101259.94;5100539;27;65677;-34
2023/11/19 01:09:00;;;;;;;;;;;;;;;28.50;61.33;101250.63;5102254;27;69588;-35
2023/11/19 01:11:30;;;;;;;;;;;;;;;28.52;60.88;101259.34;5102067;27;66833;-34
2023/11/19 01:14:00;;;;;;;;;;;;;;;28.57;61.25;101268.75;5087727;27;70469;-34
2023/11/19 01:16:29;;;;;;;;;;;;;;;28.57;60.89;101263.34;5102207;27;66768;-34
2023/11/19 01:19:04;;;;;;;;;;;;;;;28.54;59.56;101252.94;5101142;27;69909;-34
2023/11/19 01:21:45;;;;;;;;;;;;;;;28.56;58.46;101256.28;5083759;27;66159;-34
2023/11/19 01:24:15;;;;;;;;;;;;;;;28.59;58.33;101272.91;5101963;27;69035;-35
2023/11/19 01:26:45;;;;;;;;;;;;;;;28.61;58.05;101270.00;5104720;27;66735;-35
2023/11/19 01:29:15;;;;;;;;;;;;;;;28.63;57.90;101273.34;5105282;27;69760;-35
2023/11/19 01:31:46;;;;;;;;;;;;;;;28.66;57.73;101278.34;5105435;27;66023;-33
2023/11/19 01:34:16;;;;;;;;;;;;;;;28.68;58.00;101284.41;5105161;27;70130;-35
2023/11/19 01:36:48;;;;;;;;;;;;;;;28.70;57.99;101290.44;5105770;27;65515;-34
2023/11/19 01:39:19;;;;;;;;;;;;;;;28.70;57.87;101285.88;5086575;27;69209;-34
2023/11/19 01:41:49;;;;;;;;;;;;;;;28.73;57.53;101287.34;5085485;27;66007;-36
2023/11/19 01:44:18;;;;;;;;;;;;;;;28.74;57.42;101286.31;5104554;27;70021;-34
2023/11/19 01:46:49;;;;;;;;;;;;;;;28.77;57.94;101285.91;5086531;27;65540;-33
2023/11/19 01:49:19;;;;;;;;;;;;;;;28.78;57.46;101287.59;5102480;27;70894;-34
2023/11/19 01:51:49;;;;;;;;;;;;;;;28.80;57.53;101290.91;5104474;27;66904;-35
2023/11/19 01:54:19;;;;;;;;;;;;;;;28.82;57.86;101291.56;5104280;27;69875;-34
2023/11/19 01:56:49;;;;;;;;;;;;;;;28.83;57.88;101285.13;5084790;27;66586;-37
2023/11/19 01:59:20;;;;;;;;;;;;;;;28.84;57.58;101292.22;5085722;27;69273;-33
2023/11/19 02:01:51;;;;;;;;;;;;;;;28.87;57.40;101291.81;5086342;27;66941;-36
2023/11/19 02:04:29;;;;;;;;;;;;;;;28.88;57.32;101293.47;5085712;27;70333;-35
2023/11/19 02:06:59;;;;;;;;;;;;;;;28.91;57.47;101295.78;5104496;27;67436;-36
2023/11/19 02:09:29;;;;;;;;;;;;;;;28.91;57.34;101295.78;5085253;27;69469;-35
2023/11/19 02:12:00;;;;;;;;;;;;;;;28.93;57.35;101291.00;5087019;27;66021;-35
2023/11/19 02:14:30;;;;;;;;;;;;;;;28.96;57.28;101287.09;5104050;27;70328;-34
2023/11/19 02:17:00;;;;;;;;;;;;;;;28.99;57.80;101288.56;5086025;27;65944;-33
2023/11/19 02:19:30;;;;;;;;;;;;;;;29.01;57.42;101283.81;5091755;27;70575;-36
2023/11/19 02:22:00;;;;;;;;;;;;;;;29.02;57.79;101282.75;5084691;27;66668;-33
2023/11/19 02:24:31;;;;;;;;;;;;;;;29.05;57.84;101282.41;5085223;27;70712;-34
2023/11/19 02:27:10;;;;;;;;;;;;;;;29.06;57.74;101284.91;5104022;27;65485;-36
2023/11/19 02:29:40;;;;;;;;;;;;;;;29.09;57.29;101278.28;5104605;27;70513;-35
2023/11/19 02:32:10;;;;;;;;;;;;;;;29.10;57.89;101279.94;5102204;27;66019;-34
2023/11/19 02:34:41;;;;;;;;;;;;;;;29.13;57.38;101279.53;5086108;27;70326;-36
2023/11/19 02:37:10;;;;;;;;;;;;;;;29.14;57.49;101284.75;5103852;27;66677;-36
2023/11/19 02:39:41;;;;;;;;;;;;;;;29.13;60.04;101276.84;5102024;27;70210;-35
2023/11/19 02:42:12;;;;;;;;;;;;;;;29.11;60.21;101278.91;5085901;27;65591;-35
2023/11/19 02:44:45;;;;;;;;;;;;;;;29.10;60.38;101277.25;5103566;27;70348;-35
2023/11/19 02:47:15;;;;;;;;;;;;;;;29.09;61.06;101275.59;5104001;27;65348;-34
2023/11/19 02:49:44;;;;;;;;;;;;;;;29.07;60.84;101274.94;5102824;27;70662;-34
2023/11/19 02:52:14;;;;;;;;;;;;;;;29.10;60.70;101269.13;5104449;27;65882;-35
2023/11/19 02:54:45;;;;;;;;;;;;;;;28.79;61.00;101219.06;5102395;27;70285;-35
2023/11/19 02:57:14;;;;;;;;;;;;;;;29.13;60.98;101258.75;5103731;27;66845;-34
2023/11/19 02:59:47;;;;;;;;;;;;;;;29.17;60.85;101275.41;5084618;27;70837;-35
2023/11/19 03:02:17;;;;;;;;;;;;;;;29.16;61.34;101269.16;5085437;27;66952;-35
2023/11/19 03:04:47;;;;;;;;;;;;;;;29.20;61.43;101266.06;5102957;27;70582;-35
2023/11/19 03:07:17;;;;;;;;;;;;;;;29.20;61.62;101256.09;5085155;27;66908;-35
2023/11/19 03:09:47;;;;;;;;;;;;;;;29.23;60.85;101263.81;5104115;27;70230;-35
2023/11/19 03:12:19;;;;;;;;;;;;;;;29.23;61.03;101261.09;5103187;27;65753;-35
2023/11/19 03:14:50;;;;;;;;;;;;;;;29.27;60.98;101261.53;5083850;27;70193;-37
2023/11/19 03:17:20;;;;;;;;;;;;;;;29.29;61.02;101252.19;5103974;27;66468;-35
2023/11/19 03:19:49;;;;;;;;;;;;;;;29.29;61.22;101246.78;5085705;27;70520;-37
2023/11/19 03:22:20;;;;;;;;;;;;;;;29.33;61.55;101244.50;5084569;27;66613;-34
2023/11/19 03:24:53;;;;;;;;;;;;;;;29.34;61.55;101238.91;5103400;27;70398;-35
2023/11/19 03:27:22;;;;;;;;;;;;;;;29.36;61.21;101234.16;5103225;27;66344;-36
2023/11/19 03:29:52;;;;;;;;;;;;;;;29.38;61.50;101223.97;5080504;27;69751;-35
2023/11/19 03:32:22;;;;;;;;;;;;;;;29.40;62.03;101227.31;5083364;27;66635;-34
2023/11/19 03:34:52;;;;;;;;;;;;;;;29.42;61.95;101210.91;5083160;28;70731;-34
2023/11/19 03:37:21;;;;;;;;;;;;;;;29.45;62.65;101206.91;5081823;27;65549;-34
2023/11/19 03:39:51;;;;;;;;;;;;;;;29.47;62.45;101194.88;5083119;27;70275;-36
2023/11/19 03:42:22;;;;;;;;;;;;;;;29.50;63.22;101190.94;5083680;27;66961;-35
2023/11/19 03:44:52;;;;;;;;;;;;;;;29.53;63.19;101187.81;5081587;27;69306;-34
2023/11/19 03:47:22;;;;;;;;;;;;;;;29.56;64.13;101182.00;5080894;27;66097;-33
2023/11/19 03:49:52;;;;;;;;;;;;;;;29.58;63.79;101175.34;5082094;27;70636;-35
2023/11/19 03:52:21;;;;;;;;;;;;;;;29.62;64.18;101175.81;5081579;27;65652;-35
2023/11/19 03:54:51;;;;;;;;;;;;;;;29.65;64.12;101161.91;5082464;27;70204;-35
2023/11/19 03:57:21;;;;;;;;;;;;;;;29.67;64.94;101161.69;5082901;27;66301;-36
2023/11/19 03:59:51;;;;;;;;;;;;;;;29.69;65.11;101155.03;5080229;27;69812;-35
2023/11/19 04:02:21;;;;;;;;;;;;;;;29.72;64.51;101157.31;5081212;28;66735;-36
2023/11/19 04:04:50;;;;;;;;;;;;;;;29.73;63.90;101150.91;5081255;27;70692;-36
2023/11/19 04:07:20;;;;;;;;;;;;;;;29.73;63.73;101148.19;5081500;27;66149;-35
2023/11/19 04:09:49;;;;;;;;;;;;;;;29.76;63.50;101147.78;5080822;28;70295;-37
2023/11/19 04:12:20;;;;;;;;;;;;;;;29.77;62.59;101141.31;5082563;27;66947;-35
2023/11/19 04:14:49;;;;;;;;;;;;;;;29.80;62.22;101151.72;5080656;27;70143;-35
2023/11/19 04:17:29;;;;;;;;;;;;;;;29.82;62.44;101141.53;5082912;27;66442;-35
2023/11/19 04:19:59;;;;;;;;;;;;;;;29.87;62.25;101130.09;5057619;28;69358;-35
2023/11/19 04:22:29;;;;;;;;;;;;;;;29.91;61.52;101130.53;5078732;27;67550;-34
2023/11/19 04:24:58;;;;;;;;;;;;;;;29.94;61.53;101130.09;5078107;27;70272;-36
2023/11/19 04:27:29;;;;;;;;;;;;;;;29.96;60.67;101122.63;5079314;27;67040;-35
2023/11/19 04:30:01;;;;;;;;;;;;;;;29.98;60.61;101115.97;5074981;27;71615;-34
2023/11/19 04:32:31;;;;;;;;;;;;;;;29.98;60.11;101109.72;5078877;27;65756;-36
2023/11/19 04:35:01;;;;;;;;;;;;;;;29.99;60.04;101100.56;5076134;27;70521;-35
2023/11/19 04:37:30;;;;;;;;;;;;;;;30.01;59.59;101093.91;5078639;27;66663;-34
2023/11/19 04:40:00;;;;;;;;;;;;;;;30.05;59.46;101094.31;5070839;27;70274;-35
2023/11/19 04:42:31;;;;;;;;;;;;;;;30.06;59.36;101079.72;5078073;27;65794;-35
2023/11/19 04:45:01;;;;;;;;;;;;;;;30.09;58.76;101073.94;5079160;27;69907;-35
2023/11/19 04:47:31;;;;;;;;;;;;;;;30.11;57.89;101071.81;5075292;27;65664;-34
2023/11/19 04:50:01;;;;;;;;;;;;;;;30.09;57.88;101068.50;5079075;27;69623;-35
2023/11/19 04:52:31;;;;;;;;;;;;;;;30.10;57.83;101059.34;5079452;27;65817;-35
2023/11/19 04:55:00;;;;;;;;;;;;;;;30.10;57.58;101048.53;5079004;27;69965;-35
2023/11/19 04:57:31;;;;;;;;;;;;;;;30.09;57.32;101041.47;5079085;28;66989;-35
2023/11/19 05:00:00;;;;;;;;;;;;;;;30.10;56.88;101032.28;5079369;27;70110;-35
2023/11/19 05:02:43;;;;;;;;;;;;;;;30.11;57.07;101027.72;5079156;27;66365;-34
2023/11/19 05:05:13;;;;;;;;;;;;;;;30.11;56.24;101016.88;5078558;27;69469;-35
2023/11/19 05:07:43;;;;;;;;;;;;;;;30.14;56.08;101005.63;5079089;27;66769;-34
2023/11/19 05:10:12;;;;;;;;;;;;;;;30.15;56.01;101001.91;5078585;27;69720;-35
2023/11/19 05:12:43;;;;;;;;;;;;;;;30.15;55.52;100991.91;5078479;27;66092;-35
2023/11/19 05:15:12;;;;;;;;;;;;;;;30.19;55.41;100984.19;5079337;27;69332;-35
2023/11/19 05:17:42;;;;;;;;;;;;;;;30.19;55.21;100986.91;5078032;28;65641;-34
2023/11/19 05:20:13;;;;;;;;;;;;;;;30.22;54.64;100981.91;5077190;27;70000;-35
2023/11/19 05:22:43;;;;;;;;;;;;;;;30.24;54.92;100979.00;5078667;27;66361;-35
2023/11/19 05:25:12;;;;;;;;;;;;;;;30.28;54.50;100974.81;5079075;28;69404;-35
2023/11/19 05:27:42;;;;;;;;;;;;;;;30.30;54.10;100966.50;5071846;28;65601;-35
2023/11/19 05:30:12;;;;;;;;;;;;;;;30.34;54.32;100962.31;5086346;27;69488;-34
2023/11/19 05:32:42;;;;;;;;;;;;;;;30.35;53.88;100959.41;5099733;27;66214;-37
2023/11/19 05:35:12;;;;;;;;;;;;;;;30.39;54.11;100949.78;5097190;27;70633;-36
2023/11/19 05:37:41;;;;;;;;;;;;;;;30.39;53.56;100932.72;5098331;27;66364;-36
2023/11/19 05:40:14;;;;;;;;;;;;;;;30.42;53.67;100938.56;5080192;27;69090;-36
2023/11/19 05:42:44;;;;;;;;;;;;;;;30.44;53.66;100930.19;5097131;27;66905;-37
2023/11/19 05:45:14;;;;;;;;;;;;;;;30.48;53.48;100928.75;5097619;27;71059;-36
2023/11/19 05:47:43;;;;;;;;;;;;;;;30.53;53.79;100923.47;5099115;27;66058;-37
2023/11/19 05:50:14;;;;;;;;;;;;;;;30.56;53.34;100912.22;5080916;27;70868;-34
2023/11/19 05:52:44;;;;;;;;;;;;;;;30.59;53.48;100922.63;5098305;27;65335;-36
2023/11/19 05:55:14;;;;;;;;;;;;;;;30.63;53.47;100914.91;5099557;27;69357;-35
2023/11/19 05:57:44;;;;;;;;;;;;;;;30.65;53.75;100908.22;5098811;27;66466;-33
2023/11/19 06:00:15;;;;;;;;;;;;;;;30.55;53.74;100905.16;5081251;27;68748;-34
2023/11/19 06:02:44;;;;;;;;;;;;;;;30.39;53.04;100894.84;5098037;27;65714;-35
2023/11/19 06:05:14;;;;;;;;;;;;;;;30.20;52.41;100894.69;5098621;27;70653;-34
2023/11/19 06:07:44;;;;;;;;;;;;;;;30.10;51.23;100886.22;5099365;27;66671;-33
2023/11/19 06:10:16;;;;;;;;;;;;;;;29.99;51.29;100886.88;5098045;27;70371;-36
2023/11/19 06:12:47;;;;;;;;;;;;;;;29.91;50.69;100879.84;5102503;27;66505;-35
2023/11/19 06:15:16;;;;;;;;;;;;;;;29.86;50.08;100873.41;5103460;27;69790;-34
2023/11/19 06:17:47;;;;;;;;;;;;;;;29.78;49.58;100872.63;5102341;27;66303;-34
2023/11/19 06:20:17;;;;;;;;;;;;;;;29.73;49.14;100858.91;5095312;27;70564;-35
2023/11/19 06:22:47;;;;;;;;;;;;;;;29.63;48.57;100855.81;5089194;27;66424;-35
2023/11/19 06:25:18;;;;;;;;;;;;;;;29.61;48.63;100852.44;5102486;27;69985;-34
2023/11/19 06:27:49;;;;;;;;;;;;;;;29.54;48.22;100848.94;5102924;27;65554;-34
2023/11/19 06:30:19;;;;;;;;;;;;;;;29.55;47.48;100839.78;5101986;27;70492;-33
2023/11/19 06:32:49;;;;;;;;;;;;;;;29.51;47.50;100833.16;5083153;27;66964;-34
2023/11/19 06:35:19;;;;;;;;;;;;;;;29.46;46.60;100830.25;5102060;27;70548;-34
2023/11/19 06:37:49;;;;;;;;;;;;;;;29.44;46.78;100824.22;5100727;27;66249;-34
2023/11/19 06:40:19;;;;;;;;;;;;;;;29.40;46.26;100832.75;5102072;27;70255;-36
2023/11/19 06:42:49;;;;;;;;;;;;;;;29.39;45.99;100825.69;5101468;27;65663;-36
2023/11/19 06:45:19;;;;;;;;;;;;;;;29.36;46.41;100819.88;5099221;27;70192;-35
2023/11/19 06:47:49;;;;;;;;;;;;;;;29.37;45.73;100816.97;5106333;27;66570;-33
2023/11/19 06:50:19;;;;;;;;;;;;;;;29.32;45.77;100810.53;5102088;27;70508;-34
2023/11/19 06:52:49;;;;;;;;;;;;;;;29.34;45.89;100809.28;5084917;27;65441;-35
2023/11/19 06:55:19;;;;;;;;;;;;;;;29.32;45.79;100808.66;5101233;27;69922;-34
2023/11/19 06:57:49;;;;;;;;;;;;;;;29.34;45.63;100805.75;5102921;27;66968;-34
2023/11/19 07:00:20;;;;;;;;;;;;;;;29.33;45.42;100802.19;5102016;27;70588;-35
2023/11/19 07:02:51;;;;;;;;;;;;;;;29.31;45.49;100801.59;5100764;27;66187;-34
2023/11/19 07:05:21;;;;;;;;;;;;;;;29.30;45.10;100799.09;5096579;27;68422;-34
2023/11/19 07:07:50;;;;;;;;;;;;;;;29.33;45.18;100794.09;5083494;27;66856;-35
2023/11/19 07:10:20;;;;;;;;;;;;;;;29.39;45.25;100793.28;5101515;27;69619;-33
2023/11/19 07:12:50;;;;;;;;;;;;;;;29.42;45.06;100780.34;5100830;27;66074;-33
2023/11/19 07:15:21;;;;;;;;;;;;;;;29.42;44.98;100785.75;5102259;27;69953;-34
2023/11/19 07:17:51;;;;;;;;;;;;;;;29.46;44.71;100777.03;5088021;27;65749;-33
2023/11/19 07:20:23;;;;;;;;;;;;;;;29.40;44.51;100777.88;5100798;27;70655;-35
2023/11/19 07:22:55;;;;;;;;;;;;;;;29.45;44.54;100772.69;5101672;27;65675;-33
2023/11/19 07:25:26;;;;;;;;;;;;;;;29.44;44.18;100767.47;5100334;27;70024;-33
2023/11/19 07:27:56;;;;;;;;;;;;;;;29.42;43.89;100769.53;5100955;27;66051;-34
2023/11/19 07:30:26;;;;;;;;;;;;;;;29.43;44.05;100771.22;5101385;27;69245;-34
2023/11/19 07:32:56;;;;;;;;;;;;;;;29.43;43.52;100763.94;5097960;27;66032;-34
2023/11/19 07:35:26;;;;;;;;;;;;;;;29.42;43.37;100772.25;5100030;27;70549;-34
2023/11/19 07:37:56;;;;;;;;;;;;;;;29.39;43.66;100763.56;5100802;27;65539;-35
2023/11/19 07:40:25;;;;;;;;;;;;;;;29.47;43.35;100767.03;5099675;27;69902;-33
2023/11/19 07:42:56;;;;;;;;;;;;;;;29.53;45.59;100771.59;5099821;27;66476;-33
2023/11/19 07:45:27;;;;;;;;;;;;;;;29.55;45.58;100769.50;5100395;27;70102;-34
2023/11/19 07:47:57;;;;;;;;;;;;;;;29.53;45.14;100758.06;5099908;27;65661;-32
2023/11/19 07:50:27;;;;;;;;;;;;;;;29.49;44.88;100754.16;5099173;27;69780;-35
2023/11/19 07:52:56;;;;;;;;;;;;;;;29.46;44.29;100757.28;5097300;27;65798;-34
2023/11/19 07:55:27;;;;;;;;;;;;;;;29.48;44.49;100753.31;5099310;27;69475;-37
2023/11/19 07:57:58;;;;;;;;;;;;;;;29.49;44.31;100754.16;5100543;27;66901;-35
2023/11/19 08:00:28;;;;;;;;;;;;;;;29.44;43.60;100759.38;5100672;27;70393;-36
2023/11/19 08:02:58;;;;;;;;;;;;;;;29.45;43.65;100752.91;5097573;27;65850;-35
2023/11/19 08:05:28;;;;;;;;;;;;;;;29.40;43.96;100762.50;5100115;27;70860;-35
2023/11/19 08:07:58;;;;;;;;;;;;;;;29.37;43.45;100757.53;5098861;27;66532;-36
2023/11/19 08:10:28;;;;;;;;;;;;;;;29.42;43.32;100753.34;5100877;27;69390;-34
2023/11/19 08:12:58;;;;;;;;;;;;;;;29.40;43.23;100751.69;5099843;27;65893;-37
2023/11/19 08:15:29;;;;;;;;;;;;;;;29.40;43.56;100762.50;5098027;27;70279;-33
2023/11/19 08:18:00;;;;;;;;;;;;;;;29.36;43.10;100755.88;5099813;27;66494;-36
2023/11/19 08:20:31;;;;;;;;;;;;;;;29.38;43.60;100759.16;5100224;27;69301;-35
2023/11/19 08:23:03;;;;;;;;;;;;;;;29.34;43.10;100752.53;5098622;27;66773;-34
2023/11/19 08:25:36;;;;;;;;;;;;;;;29.34;43.42;100757.13;5100244;27;70509;-34
2023/11/19 08:28:06;;;;;;;;;;;;;;;29.30;42.82;100751.28;5098705;27;65987;-34
2023/11/19 08:30:35;;;;;;;;;;;;;;;29.26;43.27;100750.06;5096143;27;69620;-35
2023/11/19 08:33:06;;;;;;;;;;;;;;;29.30;43.28;100745.91;5098854;27;66460;-34
2023/11/19 08:35:36;;;;;;;;;;;;;;;29.27;42.82;100746.31;5099247;27;70705;-35
2023/11/19 08:38:06;;;;;;;;;;;;;;;29.33;42.98;100748.16;5096629;27;65741;-36
2023/11/19 08:40:38;;;;;;;;;;;;;;;29.50;47.34;100750.41;5100054;27;70443;-36
2023/11/19 08:43:08;;;;;;;;;;;;;;;29.68;50.02;100750.56;5092968;27;66257;-35
2023/11/19 08:45:38;;;;;;;;;;;;;;;29.86;52.14;100749.00;5097663;27;69455;-34
2023/11/19 08:48:08;;;;;;;;;;;;;;;30.08;56.22;100746.81;5098519;27;66758;-37
2023/11/19 08:50:38;;;;;;;;;;;;;;;30.22;56.50;100741.09;5098766;27;69930;-34
2023/11/19 08:53:08;;;;;;;;;;;;;;;30.35;57.69;100752.91;5098316;27;66249;-36
2023/11/19 08:55:38;;;;;;;;;;;;;;;30.47;57.64;100751.94;5100282;27;69176;-36
2023/11/19 08:58:07;;;;;;;;;;;;;;;30.60;58.26;100761.84;5099009;27;65611;-36
2023/11/19 09:00:37;;;;;;;;;;;;;;;30.68;57.90;100758.03;5099832;27;70526;-36
2023/11/19 09:03:09;;;;;;;;;;;;;;;30.77;58.34;100766.72;5099758;27;66395;-36
2023/11/19 09:05:39;;;;;;;;;;;;;;;30.84;57.73;100749.38;5099584;27;69339;-36
2023/11/19 09:08:11;;;;;;;;;;;;;;;30.89;58.07;100762.22;5097989;27;66840;-35
2023/11/19 09:10:41;;;;;;;;;;;;;;;30.70;58.09;100724.28;5098231;27;70098;-36
2023/11/19 09:13:12;;;;;;;;;;;;;;;30.96;58.19;100765.72;5099219;27;66160;-37
2023/11/19 09:15:42;;;;;;;;;;;;;;;31.03;57.76;100766.47;5099778;27;70423;-35
2023/11/19 09:18:12;;;;;;;;;;;;;;;31.16;56.39;100766.34;5098319;27;66742;-36
2023/11/19 09:20:42;;;;;;;;;;;;;;;31.27;55.97;100774.78;5099038;27;70235;-36
2023/11/19 09:23:13;;;;;;;;;;;;;;;31.34;55.69;100775.50;5090500;27;67447;-36
2023/11/19 09:25:42;;;;;;;;;;;;;;;31.39;55.28;100770.28;5099001;27;70235;-35
2023/11/19 09:28:14;;;;;;;;;;;;;;;31.43;54.78;100779.63;5098200;27;66886;-37
2023/11/19 09:30:44;;;;;;;;;;;;;;;31.46;54.87;100784.59;5097642;27;70145;-36
2023/11/19 09:33:14;;;;;;;;;;;;;;;31.49;55.00;100780.59;5099162;27;65362;-36
2023/11/19 09:35:44;;;;;;;;;;;;;;;31.52;54.91;100785.56;5097061;27;70399;-34
2023/11/19 09:38:14;;;;;;;;;;;;;;;31.54;54.65;100794.31;5098210;27;66593;-35
2023/11/19 09:40:44;;;;;;;;;;;;;;;31.57;54.42;100796.56;5077098;27;69471;-34
2023/11/19 09:43:15;;;;;;;;;;;;;;;31.58;54.67;100795.50;5095789;27;65698;-34
2023/11/19 09:45:52;;;;;;;;;;;;;;;31.59;54.62;100802.56;5097578;27;70049;-37
2023/11/19 09:48:25;;;;;;;;;;;;;;;31.60;54.65;100805.06;5098346;27;65651;-35
2023/11/19 09:50:55;;;;;;;;;;;;;;;31.60;54.33;100805.06;5100804;27;69875;-35
2023/11/19 09:53:24;;;;;;;;;;;;;;;31.63;55.95;100805.69;5102043;27;65465;-37
2023/11/19 09:55:55;;;;;;;;;;;;;;;31.40;57.41;100796.34;5101745;27;70098;-37
2023/11/19 09:58:26;;;;;;;;;;;;;;;31.29;58.74;100806.03;5100890;27;66647;-36
2023/11/19 10:00:58;;;;;;;;;;;;;;;31.28;59.22;100811.66;5102003;27;69803;-38
2023/11/19 10:03:50;;;;;;;;;;;;;;;31.24;59.49;100811.28;5099987;27;66946;-37
2023/11/19 10:06:20;;;;;;;;;;;;;;;31.20;59.23;100809.22;5101669;27;70235;-36
2023/11/19 10:08:50;;;;;;;;;;;;;;;31.20;59.72;100809.22;5102360;27;66389;-37
2023/11/19 10:11:20;;;;;;;;;;;;;;;31.14;59.26;100817.19;5100791;27;70888;-38
2023/11/19 10:13:51;;;;;;;;;;;;;;;31.10;59.82;100823.31;5097305;27;66869;-36
2023/11/19 10:16:28;;;;;;;;;;;;;;;31.09;60.04;100830.63;5098732;27;69940;-34
2023/11/19 10:18:57;;;;;;;;;;;;;;;31.06;60.45;100831.03;5099937;27;66650;-36
2023/11/19 10:21:27;;;;;;;;;;;;;;;31.03;60.43;100831.47;5102355;27;69255;-35
2023/11/19 10:23:59;;;;;;;;;;;;;;;31.05;60.44;100836.69;5100026;27;66925;-34
2023/11/19 10:26:29;;;;;;;;;;;;;;;31.02;60.64;100845.25;5100267;27;68974;-35
2023/11/19 10:28:59;;;;;;;;;;;;;;;31.02;60.68;100843.38;5100851;27;66488;-35
2023/11/19 10:31:29;;;;;;;;;;;;;;;31.01;61.16;100851.72;5097680;27;69883;-36
2023/11/19 10:33:59;;;;;;;;;;;;;;;31.00;61.12;100859.03;5100310;27;66870;-36
2023/11/19 10:36:40;;;;;;;;;;;;;;;31.01;61.26;100859.84;5100917;27;70381;-36
2023/11/19 10:39:10;;;;;;;;;;;;;;;31.00;61.13;100859.03;5100605;27;66549;-35
2023/11/19 10:41:40;;;;;;;;;;;;;;;30.98;61.36;100855.72;5101772;27;70211;-35
2023/11/19 10:44:09;;;;;;;;;;;;;;;30.81;61.26;100839.16;5101714;27;66846;-35
2023/11/19 10:46:40;;;;;;;;;;;;;;;30.97;61.65;100861.34;5101546;27;70483;-36
2023/11/19 10:49:10;;;;;;;;;;;;;;;30.97;61.65;100870.31;5101853;27;66486;-37
2023/11/19 10:51:46;;;;;;;;;;;;;;;30.94;62.14;100871.56;5098478;27;70273;-36
2023/11/19 10:54:18;;;;;;;;;;;;;;;30.95;62.75;100877.81;5101089;27;66456;-36
2023/11/19 10:56:52;;;;;;;;;;;;;;;30.97;63.08;100881.13;5100823;27;70447;-37
2023/11/19 10:59:23;;;;;;;;;;;;;;;30.95;63.25;100877.81;5099769;27;66656;-34
2023/11/19 11:01:58;;;;;;;;;;;;;;;30.94;63.07;100893.25;5101067;27;70655;-39
2023/11/19 11:04:31;;;;;;;;;;;;;;;30.90;63.52;100888.50;5100045;27;67061;-36
2023/11/19 11:07:02;;;;;;;;;;;;;;;30.88;63.73;100893.31;5101219;27;70354;-36
2023/11/19 11:09:32;;;;;;;;;;;;;;;30.87;63.61;100905.16;5101383;27;65540;-36
2023/11/19 11:12:03;;;;;;;;;;;;;;;30.86;63.67;100898.09;5101143;27;70708;-39
2023/11/19 11:14:35;;;;;;;;;;;;;;;30.86;63.96;100900.81;5101920;27;67389;-37
2023/11/19 11:17:07;;;;;;;;;;;;;;;30.86;64.13;100903.53;5082087;27;70359;-36
2023/11/19 11:19:37;;;;;;;;;;;;;;;30.87;64.38;100918.72;5098107;27;66709;-36
2023/11/19 11:22:07;;;;;;;;;;;;;;;30.85;64.61;100921.66;5097506;27;70720;-36
2023/11/19 11:24:57;;;;;;;;;;;;;;;30.84;65.08;100920.00;5101873;27;65775;-39
2023/11/19 11:27:37;;;;;;;;;;;;;;;30.80;65.17;100929.59;5093757;27;70527;-36
2023/11/19 11:30:25;;;;;;;;;;;;;;;30.75;65.29;100937.50;5096495;27;65388;-37
2023/11/19 11:33:19;;;;;;;;;;;;;;;30.72;65.73;100938.78;5097737;27;71301;-36
2023/11/19 11:35:48;;;;;;;;;;;;;;;30.74;66.13;100946.69;5100001;27;66653;-37
2023/11/19 11:38:21;;;;;;;;;;;;;;;30.76;66.09;100949.16;5100894;27;69706;-37
2023/11/19 11:41:09;;;;;;;;;;;;;;;30.76;66.54;100957.28;5097464;27;66880;-38
2023/11/19 11:43:46;;;;;;;;;;;;;;;30.78;66.50;100968.75;5093899;27;70095;-38
2023/11/19 11:46:37;;;;;;;;;;;;;;;30.77;66.90;100970.63;5081417;27;66517;-38
2023/11/19 11:49:07;;;;;;;;;;;;;;;30.78;67.12;100985.00;5096257;27;69926;-39
2023/11/19 11:51:43;;;;;;;;;;;;;;;30.73;67.66;100989.19;5097438;27;66465;-39
2023/11/19 11:54:20;;;;;;;;;;;;;;;30.78;67.61;100990.41;5100833;27;69146;-38
2023/11/19 11:57:03;;;;;;;;;;;;;;;30.78;67.78;101001.25;5099475;27;66676;-36
2023/11/19 11:59:44;;;;;;;;;;;;;;;30.79;67.90;101002.94;5099330;27;70269;-37
2023/11/19 12:02:16;;;;;;;;;;;;;;;30.78;67.89;101001.25;5100118;27;66805;-40
2023/11/19 12:04:50;;;;;;;;;;;;;;;30.76;67.63;101003.31;5100052;27;70484;-39
2023/11/19 12:07:22;;;;;;;;;;;;;;;30.73;67.78;101013.56;5101045;27;65505;-37
2023/11/19 12:09:55;;;;;;;;;;;;;;;30.54;67.20;100992.84;5098284;27;71383;-37
2023/11/19 12:12:27;;;;;;;;;;;;;;;30.71;67.64;101031.91;5067638;27;65416;-35
2023/11/19 12:15:07;;;;;;;;;;;;;;;30.73;67.71;101031.69;5101189;27;70187;-35
2023/11/19 12:17:44;;;;;;;;;;;;;;;30.72;67.84;101030.84;5100219;27;66922;-36
2023/11/19 12:20:14;;;;;;;;;;;;;;;30.70;67.32;101022.13;5098745;27;70352;-36
2023/11/19 12:23:05;;;;;;;;;;;;;;;30.67;66.69;101038.81;5099202;27;66112;-37
2023/11/19 12:25:35;;;;;;;;;;;;;;;30.63;66.90;101036.72;5099268;27;69928;-37
2023/11/19 12:28:05;;;;;;;;;;;;;;;30.62;66.48;101032.34;5098132;27;66078;-35
2023/11/19 12:30:35;;;;;;;;;;;;;;;30.61;66.12;101042.34;5100290;27;70130;-37
2023/11/19 12:33:11;;;;;;;;;;;;;;;30.59;66.31;101046.31;5099650;27;66903;-36
2023/11/19 12:35:42;;;;;;;;;;;;;;;30.59;66.73;101046.31;5098634;27;70074;-36
2023/11/19 12:38:25;;;;;;;;;;;;;;;30.57;66.75;101057.38;5100141;27;66850;-38
2023/11/19 12:41:10;;;;;;;;;;;;;;;30.56;67.50;101057.56;5098356;27;70100;-34
2023/11/19 12:43:40;;;;;;;;;;;;;;;30.59;66.86;101071.53;5095727;27;67011;-36
2023/11/19 12:46:22;;;;;;;;;;;;;;;30.57;67.39;101064.66;5097589;27;69444;-35
2023/11/19 12:48:53;;;;;;;;;;;;;;;30.59;66.79;101070.69;5099096;27;65568;-35
2023/11/19 12:51:23;;;;;;;;;;;;;;;30.57;66.23;101073.63;5081439;27;69269;-38
2023/11/19 12:53:58;;;;;;;;;;;;;;;30.55;66.15;101078.41;5096715;27;65563;-35
2023/11/19 12:56:29;;;;;;;;;;;;;;;30.60;66.63;101072.38;5095291;27;69664;-35